sensor_id;sensor_type;location;lat;lon;timestamp;temperature;humidity
57242;DHT22;43095;53.302;5.786;2022-10-31T00:01:16;12.60;99.90
57242;DHT22;43095;53.302;5.786;2022-10-31T00:03:45;12.50;99.90
57242;DHT22;43095;53.302;5.786;2022-10-31T00:06:12;12.50;99.90
57242;DHT22;43095;53.302;5.786;2022-10-31T00:08:39;12.50;99.90
57242;DHT22;43095;53.302;5.786;2022-10-31T00:11:11;12.40;99.90
57242;DHT22;43095;53.302;5.786;2022-10-31T00:13:40;12.40;99.90
57242;DHT22;43095;53.302;5.786;2022-10-31T00:16:24;12.30;99.90
57242;DHT22;43095;53.302;5.786;2022-10-31T00:18:53;12.30;99.90
57242;DHT22;43095;53.302;5.786;2022-10-31T00:21:21;12.20;99.90
57242;DHT22;43095;53.302;5.786;2022-10-31T00:23:48;12.20;99.90
57242;DHT22;43095;53.302;5.786;2022-10-31T00:26:15;12.20;99.90
57242;DHT22;43095;53.302;5.786;2022-10-31T00:28:43;12.20;99.90
57242;DHT22;43095;53.302;5.786;2022-10-31T00:31:11;12.20;99.90
57242;DHT22;43095;53.302;5.786;2022-10-31T00:33:40;12.20;99.90
57242;DHT22;43095;53.302;5.786;2022-10-31T00:36:10;12.20;99.90
57242;DHT22;43095;53.302;5.786;2022-10-31T00:38:40;12.20;99.90
57242;DHT22;43095;53.302;5.786;2022-10-31T00:41:08;12.20;99.90
57242;DHT22;43095;53.302;5.786;2022-10-31T00:43:35;12.20;99.90
57242;DHT22;43095;53.302;5.786;2022-10-31T00:46:02;12.20;99.90
57242;DHT22;43095;53.302;5.786;2022-10-31T00:48:29;12.20;99.90
57242;DHT22;43095;53.302;5.786;2022-10-31T00:50:57;12.10;99.90
57242;DHT22;43095;53.302;5.786;2022-10-31T00:53:24;12.30;99.90
57242;DHT22;43095;53.302;5.786;2022-10-31T00:55:55;12.30;99.90
57242;DHT22;43095;53.302;5.786;2022-10-31T00:58:22;12.30;99.90
57242;DHT22;43095;53.302;5.786;2022-10-31T01:00:49;12.30;99.90
57242;DHT22;43095;53.302;5.786;2022-10-31T01:03:31;12.30;99.90
57242;DHT22;43095;53.302;5.786;2022-10-31T01:06:07;12.40;99.90
57242;DHT22;43095;53.302;5.786;2022-10-31T01:08:36;12.40;99.90
57242;DHT22;43095;53.302;5.786;2022-10-31T01:11:17;12.30;99.90
57242;DHT22;43095;53.302;5.786;2022-10-31T01:13:45;12.40;99.90
57242;DHT22;43095;53.302;5.786;2022-10-31T01:16:15;12.40;99.90
57242;DHT22;43095;53.302;5.786;2022-10-31T01:18:43;12.40;99.90
57242;DHT22;43095;53.302;5.786;2022-10-31T01:21:21;12.40;99.90
57242;DHT22;43095;53.302;5.786;2022-10-31T01:23:49;12.40;99.90
57242;DHT22;43095;53.302;5.786;2022-10-31T01:26:35;12.20;99.90
57242;DHT22;43095;53.302;5.786;2022-10-31T01:29:07;12.30;99.90
57242;DHT22;43095;53.302;5.786;2022-10-31T01:31:37;12.30;99.90
57242;DHT22;43095;53.302;5.786;2022-10-31T01:34:05;12.30;99.90
57242;DHT22;43095;53.302;5.786;2022-10-31T01:36:36;12.20;99.90
57242;DHT22;43095;53.302;5.786;2022-10-31T01:39:10;12.30;99.90
57242;DHT22;43095;53.302;5.786;2022-10-31T01:41:41;12.30;99.90
57242;DHT22;43095;53.302;5.786;2022-10-31T01:46:43;12.30;99.90
57242;DHT22;43095;53.302;5.786;2022-10-31T01:49:18;12.30;99.90
57242;DHT22;43095;53.302;5.786;2022-10-31T01:54:41;12.30;99.90
57242;DHT22;43095;53.302;5.786;2022-10-31T01:57:13;12.30;99.90
57242;DHT22;43095;53.302;5.786;2022-10-31T01:59:46;12.30;99.90
57242;DHT22;43095;53.302;5.786;2022-10-31T02:02:15;12.20;99.90
57242;DHT22;43095;53.302;5.786;2022-10-31T02:04:45;12.30;99.90
57242;DHT22;43095;53.302;5.786;2022-10-31T02:07:23;12.30;99.90
57242;DHT22;43095;53.302;5.786;2022-10-31T02:09:51;12.20;99.90
57242;DHT22;43095;53.302;5.786;2022-10-31T02:12:21;12.20;99.90
57242;DHT22;43095;53.302;5.786;2022-10-31T02:14:48;12.20;99.90
57242;DHT22;43095;53.302;5.786;2022-10-31T02:17:16;12.20;99.90
57242;DHT22;43095;53.302;5.786;2022-10-31T02:19:56;12.10;99.90
57242;DHT22;43095;53.302;5.786;2022-10-31T02:28:17;12.10;99.90
57242;DHT22;43095;53.302;5.786;2022-10-31T02:33:44;12.10;99.90
57242;DHT22;43095;53.302;5.786;2022-10-31T02:42:48;12.10;99.90
57242;DHT22;43095;53.302;5.786;2022-10-31T02:44:50;12.10;99.90
57242;DHT22;43095;53.302;5.786;2022-10-31T02:47:28;12.00;99.90
57242;DHT22;43095;53.302;5.786;2022-10-31T02:50:04;12.00;99.90
57242;DHT22;43095;53.302;5.786;2022-10-31T02:52:35;11.90;99.90
57242;DHT22;43095;53.302;5.786;2022-10-31T02:58:07;11.90;99.90
57242;DHT22;43095;53.302;5.786;2022-10-31T03:00:49;11.90;99.90
57242;DHT22;43095;53.302;5.786;2022-10-31T03:03:32;11.90;99.90
57242;DHT22;43095;53.302;5.786;2022-10-31T03:06:17;11.80;99.90
57242;DHT22;43095;53.302;5.786;2022-10-31T03:12:07;11.80;99.90
57242;DHT22;43095;53.302;5.786;2022-10-31T03:14:54;11.80;99.90
57242;DHT22;43095;53.302;5.786;2022-10-31T03:17:34;11.80;99.90
57242;DHT22;43095;53.302;5.786;2022-10-31T03:20:06;11.80;99.90
57242;DHT22;43095;53.302;5.786;2022-10-31T03:22:35;11.80;99.90
57242;DHT22;43095;53.302;5.786;2022-10-31T03:25:04;11.80;99.90
57242;DHT22;43095;53.302;5.786;2022-10-31T03:27:36;11.80;99.90
57242;DHT22;43095;53.302;5.786;2022-10-31T03:30:05;11.80;99.90
57242;DHT22;43095;53.302;5.786;2022-10-31T03:32:50;11.80;99.90
57242;DHT22;43095;53.302;5.786;2022-10-31T03:35:23;11.80;99.90
57242;DHT22;43095;53.302;5.786;2022-10-31T03:37:52;11.70;99.90
57242;DHT22;43095;53.302;5.786;2022-10-31T03:40:21;11.70;99.90
57242;DHT22;43095;53.302;5.786;2022-10-31T03:42:54;11.60;99.90
57242;DHT22;43095;53.302;5.786;2022-10-31T03:45:27;11.70;99.90
57242;DHT22;43095;53.302;5.786;2022-10-31T03:47:56;11.60;99.90
57242;DHT22;43095;53.302;5.786;2022-10-31T03:50:30;11.60;99.90
57242;DHT22;43095;53.302;5.786;2022-10-31T03:53:03;11.50;99.90
57242;DHT22;43095;53.302;5.786;2022-10-31T03:56:19;11.50;99.90
57242;DHT22;43095;53.302;5.786;2022-10-31T03:58:29;11.50;99.90
57242;DHT22;43095;53.302;5.786;2022-10-31T04:01:01;11.50;99.90
57242;DHT22;43095;53.302;5.786;2022-10-31T04:03:32;11.50;99.90
57242;DHT22;43095;53.302;5.786;2022-10-31T04:06:05;11.20;99.90
57242;DHT22;43095;53.302;5.786;2022-10-31T04:08:40;11.50;99.90
57242;DHT22;43095;53.302;5.786;2022-10-31T04:11:13;11.40;99.90
57242;DHT22;43095;53.302;5.786;2022-10-31T04:13:45;11.50;99.90
57242;DHT22;43095;53.302;5.786;2022-10-31T04:16:20;11.40;99.90
57242;DHT22;43095;53.302;5.786;2022-10-31T04:18:48;11.40;99.90
57242;DHT22;43095;53.302;5.786;2022-10-31T04:21:16;11.40;99.90
57242;DHT22;43095;53.302;5.786;2022-10-31T04:23:43;11.40;99.90
57242;DHT22;43095;53.302;5.786;2022-10-31T04:26:18;11.50;99.90
57242;DHT22;43095;53.302;5.786;2022-10-31T04:28:46;11.30;99.90
57242;DHT22;43095;53.302;5.786;2022-10-31T04:31:14;11.70;99.90
57242;DHT22;43095;53.302;5.786;2022-10-31T04:33:44;11.30;99.90
57242;DHT22;43095;53.302;5.786;2022-10-31T04:36:11;11.20;99.90
57242;DHT22;43095;53.302;5.786;2022-10-31T04:38:38;11.20;99.90
57242;DHT22;43095;53.302;5.786;2022-10-31T04:41:15;11.20;99.90
57242;DHT22;43095;53.302;5.786;2022-10-31T04:43:51;11.20;99.90
57242;DHT22;43095;53.302;5.786;2022-10-31T04:46:19;10.40;99.90
57242;DHT22;43095;53.302;5.786;2022-10-31T04:48:47;11.20;99.90
57242;DHT22;43095;53.302;5.786;2022-10-31T04:51:15;11.20;99.90
57242;DHT22;43095;53.302;5.786;2022-10-31T04:53:42;11.10;99.90
57242;DHT22;43095;53.302;5.786;2022-10-31T04:56:42;11.10;99.90
57242;DHT22;43095;53.302;5.786;2022-10-31T04:59:14;11.10;99.90
57242;DHT22;43095;53.302;5.786;2022-10-31T05:01:51;11.20;99.90
57242;DHT22;43095;53.302;5.786;2022-10-31T05:04:38;11.00;99.90
57242;DHT22;43095;53.302;5.786;2022-10-31T05:07:07;11.00;99.90
57242;DHT22;43095;53.302;5.786;2022-10-31T05:09:34;11.00;99.90
57242;DHT22;43095;53.302;5.786;2022-10-31T05:12:01;11.00;99.90
57242;DHT22;43095;53.302;5.786;2022-10-31T05:14:47;11.00;99.90
57242;DHT22;43095;53.302;5.786;2022-10-31T05:17:34;11.00;99.90
57242;DHT22;43095;53.302;5.786;2022-10-31T05:20:25;11.00;99.90
57242;DHT22;43095;53.302;5.786;2022-10-31T05:23:19;10.90;99.90
57242;DHT22;43095;53.302;5.786;2022-10-31T05:25:48;10.90;99.90
57242;DHT22;43095;53.302;5.786;2022-10-31T05:28:17;10.90;99.90
57242;DHT22;43095;53.302;5.786;2022-10-31T05:30:44;10.90;99.90
57242;DHT22;43095;53.302;5.786;2022-10-31T05:33:14;10.80;99.90
57242;DHT22;43095;53.302;5.786;2022-10-31T05:36:00;10.60;99.90
57242;DHT22;43095;53.302;5.786;2022-10-31T05:38:33;10.60;99.90
57242;DHT22;43095;53.302;5.786;2022-10-31T05:41:09;10.60;99.90
57242;DHT22;43095;53.302;5.786;2022-10-31T05:43:40;10.60;99.90
57242;DHT22;43095;53.302;5.786;2022-10-31T05:46:07;10.60;99.90
57242;DHT22;43095;53.302;5.786;2022-10-31T05:48:53;10.60;99.90
57242;DHT22;43095;53.302;5.786;2022-10-31T05:51:42;10.60;99.90
57242;DHT22;43095;53.302;5.786;2022-10-31T05:54:09;10.50;99.90
57242;DHT22;43095;53.302;5.786;2022-10-31T05:56:43;10.50;99.90
57242;DHT22;43095;53.302;5.786;2022-10-31T05:59:11;10.50;99.90
57242;DHT22;43095;53.302;5.786;2022-10-31T06:01:41;10.50;99.90
57242;DHT22;43095;53.302;5.786;2022-10-31T06:04:24;10.40;99.90
57242;DHT22;43095;53.302;5.786;2022-10-31T06:06:52;10.40;99.90
57242;DHT22;43095;53.302;5.786;2022-10-31T06:09:19;10.40;99.90
57242;DHT22;43095;53.302;5.786;2022-10-31T06:11:47;10.50;99.90
57242;DHT22;43095;53.302;5.786;2022-10-31T06:14:23;10.40;99.90
57242;DHT22;43095;53.302;5.786;2022-10-31T06:16:56;10.50;99.90
57242;DHT22;43095;53.302;5.786;2022-10-31T06:19:42;10.40;99.90
57242;DHT22;43095;53.302;5.786;2022-10-31T06:22:12;10.30;99.90
57242;DHT22;43095;53.302;5.786;2022-10-31T06:24:39;10.40;99.90
57242;DHT22;43095;53.302;5.786;2022-10-31T06:27:18;10.40;99.90
57242;DHT22;43095;53.302;5.786;2022-10-31T06:29:46;10.40;99.90
57242;DHT22;43095;53.302;5.786;2022-10-31T06:32:29;10.30;99.90
57242;DHT22;43095;53.302;5.786;2022-10-31T06:34:57;10.40;99.90
57242;DHT22;43095;53.302;5.786;2022-10-31T06:37:24;10.40;99.90
57242;DHT22;43095;53.302;5.786;2022-10-31T06:39:54;10.40;99.90
57242;DHT22;43095;53.302;5.786;2022-10-31T06:42:23;10.40;99.90
57242;DHT22;43095;53.302;5.786;2022-10-31T06:44:50;10.40;99.90
57242;DHT22;43095;53.302;5.786;2022-10-31T06:47:36;10.40;99.90
57242;DHT22;43095;53.302;5.786;2022-10-31T06:50:27;10.40;99.90
57242;DHT22;43095;53.302;5.786;2022-10-31T06:52:56;10.40;99.90
57242;DHT22;43095;53.302;5.786;2022-10-31T06:55:26;10.40;99.90
57242;DHT22;43095;53.302;5.786;2022-10-31T06:57:55;10.40;99.90
57242;DHT22;43095;53.302;5.786;2022-10-31T07:00:29;10.40;99.90
57242;DHT22;43095;53.302;5.786;2022-10-31T07:03:10;10.40;99.90
57242;DHT22;43095;53.302;5.786;2022-10-31T07:05:39;10.40;99.90
57242;DHT22;43095;53.302;5.786;2022-10-31T07:08:08;10.40;99.90
57242;DHT22;43095;53.302;5.786;2022-10-31T07:10:37;10.40;99.90
57242;DHT22;43095;53.302;5.786;2022-10-31T07:13:13;10.40;99.90
57242;DHT22;43095;53.302;5.786;2022-10-31T07:15:48;10.40;99.90
57242;DHT22;43095;53.302;5.786;2022-10-31T07:18:16;10.40;99.90
57242;DHT22;43095;53.302;5.786;2022-10-31T07:20:43;10.40;99.90
57242;DHT22;43095;53.302;5.786;2022-10-31T07:23:11;10.40;99.90
57242;DHT22;43095;53.302;5.786;2022-10-31T07:25:39;10.60;99.90
57242;DHT22;43095;53.302;5.786;2022-10-31T07:28:13;10.40;99.90
57242;DHT22;43095;53.302;5.786;2022-10-31T07:30:50;10.40;99.90
57242;DHT22;43095;53.302;5.786;2022-10-31T07:33:20;10.50;99.90
57242;DHT22;43095;53.302;5.786;2022-10-31T07:36:13;10.40;99.90
57242;DHT22;43095;53.302;5.786;2022-10-31T07:38:43;10.40;99.90
57242;DHT22;43095;53.302;5.786;2022-10-31T07:41:12;10.50;99.90
57242;DHT22;43095;53.302;5.786;2022-10-31T07:43:43;10.50;99.90
57242;DHT22;43095;53.302;5.786;2022-10-31T07:46:30;10.70;99.90
57242;DHT22;43095;53.302;5.786;2022-10-31T07:49:18;10.50;99.90
57242;DHT22;43095;53.302;5.786;2022-10-31T07:52:04;10.60;99.90
57242;DHT22;43095;53.302;5.786;2022-10-31T07:54:46;10.60;99.90
57242;DHT22;43095;53.302;5.786;2022-10-31T07:57:21;10.60;99.90
57242;DHT22;43095;53.302;5.786;2022-10-31T07:59:51;10.70;99.90
57242;DHT22;43095;53.302;5.786;2022-10-31T08:02:19;10.70;99.90
57242;DHT22;43095;53.302;5.786;2022-10-31T08:04:46;10.80;99.90
57242;DHT22;43095;53.302;5.786;2022-10-31T08:07:37;10.90;99.90
57242;DHT22;43095;53.302;5.786;2022-10-31T08:10:07;10.90;99.90
57242;DHT22;43095;53.302;5.786;2022-10-31T08:12:35;10.90;99.90
57242;DHT22;43095;53.302;5.786;2022-10-31T08:15:06;11.10;99.90
57242;DHT22;43095;53.302;5.786;2022-10-31T08:17:36;11.10;99.90
57242;DHT22;43095;53.302;5.786;2022-10-31T08:20:04;11.20;99.90
57242;DHT22;43095;53.302;5.786;2022-10-31T08:22:36;11.30;99.90
57242;DHT22;43095;53.302;5.786;2022-10-31T08:25:10;11.40;99.90
57242;DHT22;43095;53.302;5.786;2022-10-31T08:27:38;11.40;99.90
57242;DHT22;43095;53.302;5.786;2022-10-31T08:30:09;11.50;99.90
57242;DHT22;43095;53.302;5.786;2022-10-31T08:32:39;11.60;99.90
57242;DHT22;43095;53.302;5.786;2022-10-31T08:35:25;11.70;99.90
57242;DHT22;43095;53.302;5.786;2022-10-31T08:38:12;11.80;99.90
57242;DHT22;43095;53.302;5.786;2022-10-31T08:40:41;11.90;99.90
57242;DHT22;43095;53.302;5.786;2022-10-31T08:43:15;12.00;99.90
57242;DHT22;43095;53.302;5.786;2022-10-31T08:45:46;12.10;99.90
57242;DHT22;43095;53.302;5.786;2022-10-31T08:48:22;12.10;99.90
57242;DHT22;43095;53.302;5.786;2022-10-31T08:50:49;12.30;99.90
57242;DHT22;43095;53.302;5.786;2022-10-31T08:53:18;12.40;99.90
57242;DHT22;43095;53.302;5.786;2022-10-31T08:55:57;12.50;99.90
57242;DHT22;43095;53.302;5.786;2022-10-31T08:58:25;12.70;99.90
57242;DHT22;43095;53.302;5.786;2022-10-31T09:00:58;12.80;99.90
57242;DHT22;43095;53.302;5.786;2022-10-31T09:03:29;12.80;99.90
57242;DHT22;43095;53.302;5.786;2022-10-31T09:06:01;13.00;99.90
57242;DHT22;43095;53.302;5.786;2022-10-31T09:08:30;13.00;99.90
57242;DHT22;43095;53.302;5.786;2022-10-31T09:11:00;13.10;99.90
57242;DHT22;43095;53.302;5.786;2022-10-31T09:13:47;13.30;99.90
57242;DHT22;43095;53.302;5.786;2022-10-31T09:16:33;13.40;99.90
57242;DHT22;43095;53.302;5.786;2022-10-31T09:19:01;13.50;99.90
57242;DHT22;43095;53.302;5.786;2022-10-31T09:21:33;13.50;99.90
57242;DHT22;43095;53.302;5.786;2022-10-31T09:24:00;13.60;99.90
57242;DHT22;43095;53.302;5.786;2022-10-31T09:26:27;13.70;99.90
57242;DHT22;43095;53.302;5.786;2022-10-31T09:29:02;13.80;99.90
57242;DHT22;43095;53.302;5.786;2022-10-31T09:31:33;13.80;99.90
57242;DHT22;43095;53.302;5.786;2022-10-31T09:34:08;14.00;99.90
57242;DHT22;43095;53.302;5.786;2022-10-31T09:36:39;14.10;99.90
57242;DHT22;43095;53.302;5.786;2022-10-31T09:39:11;14.20;99.90
57242;DHT22;43095;53.302;5.786;2022-10-31T09:44:51;14.50;99.90
57242;DHT22;43095;53.302;5.786;2022-10-31T09:50:53;14.60;99.90
57242;DHT22;43095;53.302;5.786;2022-10-31T09:54:29;14.70;99.90
57242;DHT22;43095;53.302;5.786;2022-10-31T09:56:59;14.80;99.90
57242;DHT22;43095;53.302;5.786;2022-10-31T09:59:34;14.90;99.90
57242;DHT22;43095;53.302;5.786;2022-10-31T10:04:59;14.90;99.90
57242;DHT22;43095;53.302;5.786;2022-10-31T10:11:05;15.10;99.90
57242;DHT22;43095;53.302;5.786;2022-10-31T10:14:20;15.20;99.90
57242;DHT22;43095;53.302;5.786;2022-10-31T10:16:56;15.30;99.90
57242;DHT22;43095;53.302;5.786;2022-10-31T10:19:46;15.40;99.90
57242;DHT22;43095;53.302;5.786;2022-10-31T10:22:19;15.50;99.90
57242;DHT22;43095;53.302;5.786;2022-10-31T10:24:54;15.60;99.90
57242;DHT22;43095;53.302;5.786;2022-10-31T10:30:37;15.80;99.90
57242;DHT22;43095;53.302;5.786;2022-10-31T10:33:15;15.80;99.90
57242;DHT22;43095;53.302;5.786;2022-10-31T10:35:52;15.70;99.90
57242;DHT22;43095;53.302;5.786;2022-10-31T10:38:49;15.60;99.90
57242;DHT22;43095;53.302;5.786;2022-10-31T10:41:22;15.50;99.90
57242;DHT22;43095;53.302;5.786;2022-10-31T10:44:08;15.50;99.90
57242;DHT22;43095;53.302;5.786;2022-10-31T10:46:45;15.60;99.90
57242;DHT22;43095;53.302;5.786;2022-10-31T10:49:49;15.60;99.90
57242;DHT22;43095;53.302;5.786;2022-10-31T10:55:23;16.00;99.90
57242;DHT22;43095;53.302;5.786;2022-10-31T10:58:03;16.00;99.90
57242;DHT22;43095;53.302;5.786;2022-10-31T11:00:42;16.00;99.90
57242;DHT22;43095;53.302;5.786;2022-10-31T11:03:10;16.20;99.90
57242;DHT22;43095;53.302;5.786;2022-10-31T11:06:01;16.30;99.90
57242;DHT22;43095;53.302;5.786;2022-10-31T11:08:35;16.50;99.90
57242;DHT22;43095;53.302;5.786;2022-10-31T11:11:07;16.40;99.90
57242;DHT22;43095;53.302;5.786;2022-10-31T11:13:41;16.70;99.90
57242;DHT22;43095;53.302;5.786;2022-10-31T11:16:15;16.70;99.90
57242;DHT22;43095;53.302;5.786;2022-10-31T11:18:46;16.70;99.90
57242;DHT22;43095;53.302;5.786;2022-10-31T11:21:40;16.60;99.90
57242;DHT22;43095;53.302;5.786;2022-10-31T11:26:40;16.90;99.90
57242;DHT22;43095;53.302;5.786;2022-10-31T11:29:22;17.20;99.90
57242;DHT22;43095;53.302;5.786;2022-10-31T11:31:54;17.30;99.90
57242;DHT22;43095;53.302;5.786;2022-10-31T11:34:31;17.40;99.90
57242;DHT22;43095;53.302;5.786;2022-10-31T11:37:15;17.20;99.90
57242;DHT22;43095;53.302;5.786;2022-10-31T11:39:46;17.20;99.90
57242;DHT22;43095;53.302;5.786;2022-10-31T11:42:26;17.30;99.90
57242;DHT22;43095;53.302;5.786;2022-10-31T11:44:55;17.20;99.90
57242;DHT22;43095;53.302;5.786;2022-10-31T11:47:30;17.30;99.90
57242;DHT22;43095;53.302;5.786;2022-10-31T11:50:02;17.40;99.90
57242;DHT22;43095;53.302;5.786;2022-10-31T11:52:37;17.40;99.90
57242;DHT22;43095;53.302;5.786;2022-10-31T11:57:47;17.80;99.90
57242;DHT22;43095;53.302;5.786;2022-10-31T12:00:22;18.10;99.90
57242;DHT22;43095;53.302;5.786;2022-10-31T12:02:50;18.40;99.90
57242;DHT22;43095;53.302;5.786;2022-10-31T12:05:26;18.50;99.90
57242;DHT22;43095;53.302;5.786;2022-10-31T12:07:59;18.40;99.90
57242;DHT22;43095;53.302;5.786;2022-10-31T12:10:39;18.40;99.90
57242;DHT22;43095;53.302;5.786;2022-10-31T12:15:52;18.60;99.90
57242;DHT22;43095;53.302;5.786;2022-10-31T12:21:14;19.20;99.90
57242;DHT22;43095;53.302;5.786;2022-10-31T12:24:10;19.30;99.90
57242;DHT22;43095;53.302;5.786;2022-10-31T12:35:26;20.00;99.90
57242;DHT22;43095;53.302;5.786;2022-10-31T12:41:13;20.20;99.90
57242;DHT22;43095;53.302;5.786;2022-10-31T13:01:35;20.50;99.90
57242;DHT22;43095;53.302;5.786;2022-10-31T13:04:18;20.70;99.90
57242;DHT22;43095;53.302;5.786;2022-10-31T13:06:57;20.70;99.90
57242;DHT22;43095;53.302;5.786;2022-10-31T13:12:33;20.60;99.90
57242;DHT22;43095;53.302;5.786;2022-10-31T13:15:16;20.30;99.90
57242;DHT22;43095;53.302;5.786;2022-10-31T13:17:56;20.30;99.90
57242;DHT22;43095;53.302;5.786;2022-10-31T13:20:32;20.30;99.90
57242;DHT22;43095;53.302;5.786;2022-10-31T13:23:35;20.40;99.90
57242;DHT22;43095;53.302;5.786;2022-10-31T13:26:23;20.70;99.20
57242;DHT22;43095;53.302;5.786;2022-10-31T13:31:35;21.40;99.70
57242;DHT22;43095;53.302;5.786;2022-10-31T13:37:02;21.40;98.40
57242;DHT22;43095;53.302;5.786;2022-10-31T13:42:40;21.60;96.40
57242;DHT22;43095;53.302;5.786;2022-10-31T13:45:17;21.80;95.60
57242;DHT22;43095;53.302;5.786;2022-10-31T13:47:55;21.60;95.40
57242;DHT22;43095;53.302;5.786;2022-10-31T13:50:32;21.40;94.80
57242;DHT22;43095;53.302;5.786;2022-10-31T13:53:19;21.20;96.10
57242;DHT22;43095;53.302;5.786;2022-10-31T13:55:49;20.70;96.40
57242;DHT22;43095;53.302;5.786;2022-10-31T13:58:26;20.40;99.30
57242;DHT22;43095;53.302;5.786;2022-10-31T14:01:15;20.00;99.20
57242;DHT22;43095;53.302;5.786;2022-10-31T14:03:46;19.80;99.90
57242;DHT22;43095;53.302;5.786;2022-10-31T14:06:38;19.60;99.90
57242;DHT22;43095;53.302;5.786;2022-10-31T14:09:18;19.50;99.90
57242;DHT22;43095;53.302;5.786;2022-10-31T14:11:48;19.20;99.90
57242;DHT22;43095;53.302;5.786;2022-10-31T14:14:17;19.00;99.90
57242;DHT22;43095;53.302;5.786;2022-10-31T14:16:46;18.80;99.90
57242;DHT22;43095;53.302;5.786;2022-10-31T14:19:22;18.70;99.90
57242;DHT22;43095;53.302;5.786;2022-10-31T14:21:50;18.50;99.90
57242;DHT22;43095;53.302;5.786;2022-10-31T14:27:02;18.40;99.90
57242;DHT22;43095;53.302;5.786;2022-10-31T14:29:32;18.30;99.90
57242;DHT22;43095;53.302;5.786;2022-10-31T14:32:23;18.10;99.90
57242;DHT22;43095;53.302;5.786;2022-10-31T14:34:54;18.00;99.90
57242;DHT22;43095;53.302;5.786;2022-10-31T14:40:19;17.70;99.90
57242;DHT22;43095;53.302;5.786;2022-10-31T14:51:46;17.00;99.90
57242;DHT22;43095;53.302;5.786;2022-10-31T14:54:14;16.90;99.90
57242;DHT22;43095;53.302;5.786;2022-10-31T14:56:56;16.70;99.90
57242;DHT22;43095;53.302;5.786;2022-10-31T14:59:29;16.80;99.90
57242;DHT22;43095;53.302;5.786;2022-10-31T15:05:11;16.60;99.90
57242;DHT22;43095;53.302;5.786;2022-10-31T15:07:56;16.50;99.90
57242;DHT22;43095;53.302;5.786;2022-10-31T15:10:30;16.40;99.90
57242;DHT22;43095;53.302;5.786;2022-10-31T15:13:18;16.30;99.90
57242;DHT22;43095;53.302;5.786;2022-10-31T15:15:46;16.20;99.90
57242;DHT22;43095;53.302;5.786;2022-10-31T15:18:23;16.20;99.90
57242;DHT22;43095;53.302;5.786;2022-10-31T15:20:52;16.00;99.90
57242;DHT22;43095;53.302;5.786;2022-10-31T15:23:29;16.00;99.90
57242;DHT22;43095;53.302;5.786;2022-10-31T15:26:01;15.80;99.90
57242;DHT22;43095;53.302;5.786;2022-10-31T15:28:29;15.70;99.90
57242;DHT22;43095;53.302;5.786;2022-10-31T15:31:01;15.50;99.90
57242;DHT22;43095;53.302;5.786;2022-10-31T15:33:39;15.40;99.90
57242;DHT22;43095;53.302;5.786;2022-10-31T15:36:25;15.40;99.90
57242;DHT22;43095;53.302;5.786;2022-10-31T15:38:56;15.40;99.90
57242;DHT22;43095;53.302;5.786;2022-10-31T15:47:00;15.10;99.90
57242;DHT22;43095;53.302;5.786;2022-10-31T15:54:48;15.00;99.90
57242;DHT22;43095;53.302;5.786;2022-10-31T15:57:17;14.90;99.90
57242;DHT22;43095;53.302;5.786;2022-10-31T15:59:47;14.80;99.90
57242;DHT22;43095;53.302;5.786;2022-10-31T16:02:19;14.80;99.90
57242;DHT22;43095;53.302;5.786;2022-10-31T16:04:52;14.70;99.90
57242;DHT22;43095;53.302;5.786;2022-10-31T16:07:20;14.70;99.90
57242;DHT22;43095;53.302;5.786;2022-10-31T16:10:35;14.60;99.90
57242;DHT22;43095;53.302;5.786;2022-10-31T16:12:44;14.60;99.90
57242;DHT22;43095;53.302;5.786;2022-10-31T16:15:14;14.60;99.90
57242;DHT22;43095;53.302;5.786;2022-10-31T16:18:03;14.50;99.90
57242;DHT22;43095;53.302;5.786;2022-10-31T16:20:31;14.50;99.90
57242;DHT22;43095;53.302;5.786;2022-10-31T16:22:59;14.50;99.90
57242;DHT22;43095;53.302;5.786;2022-10-31T16:25:34;14.50;99.90
57242;DHT22;43095;53.302;5.786;2022-10-31T16:28:13;14.50;99.90
57242;DHT22;43095;53.302;5.786;2022-10-31T16:30:46;14.40;99.90
57242;DHT22;43095;53.302;5.786;2022-10-31T16:35:58;14.40;99.90
57242;DHT22;43095;53.302;5.786;2022-10-31T16:38:45;14.40;99.90
57242;DHT22;43095;53.302;5.786;2022-10-31T16:41:12;14.40;99.90
57242;DHT22;43095;53.302;5.786;2022-10-31T16:43:39;14.30;99.90
57242;DHT22;43095;53.302;5.786;2022-10-31T16:46:14;14.30;99.90
57242;DHT22;43095;53.302;5.786;2022-10-31T16:48:41;14.30;99.90
57242;DHT22;43095;53.302;5.786;2022-10-31T16:51:08;14.30;99.90
57242;DHT22;43095;53.302;5.786;2022-10-31T16:53:36;14.30;99.90
57242;DHT22;43095;53.302;5.786;2022-10-31T16:56:17;14.30;99.90
57242;DHT22;43095;53.302;5.786;2022-10-31T16:58:44;14.30;99.90
57242;DHT22;43095;53.302;5.786;2022-10-31T17:01:12;14.20;99.90
57242;DHT22;43095;53.302;5.786;2022-10-31T17:03:40;14.30;99.90
57242;DHT22;43095;53.302;5.786;2022-10-31T17:06:16;14.20;99.90
57242;DHT22;43095;53.302;5.786;2022-10-31T17:08:43;14.20;99.90
57242;DHT22;43095;53.302;5.786;2022-10-31T17:11:17;14.20;99.90
57242;DHT22;43095;53.302;5.786;2022-10-31T17:13:45;14.10;99.90
57242;DHT22;43095;53.302;5.786;2022-10-31T17:16:13;14.10;99.90
57242;DHT22;43095;53.302;5.786;2022-10-31T17:18:43;14.10;99.90
57242;DHT22;43095;53.302;5.786;2022-10-31T17:21:18;14.10;99.90
57242;DHT22;43095;53.302;5.786;2022-10-31T17:23:46;14.10;99.90
57242;DHT22;43095;53.302;5.786;2022-10-31T17:26:14;14.00;99.90
57242;DHT22;43095;53.302;5.786;2022-10-31T17:28:41;14.10;99.90
57242;DHT22;43095;53.302;5.786;2022-10-31T17:31:30;14.00;99.90
57242;DHT22;43095;53.302;5.786;2022-10-31T17:33:58;14.00;99.90
57242;DHT22;43095;53.302;5.786;2022-10-31T17:36:30;13.90;99.90
57242;DHT22;43095;53.302;5.786;2022-10-31T17:38:58;13.90;99.90
57242;DHT22;43095;53.302;5.786;2022-10-31T17:41:25;13.90;99.90
57242;DHT22;43095;53.302;5.786;2022-10-31T17:43:57;13.90;99.90
57242;DHT22;43095;53.302;5.786;2022-10-31T17:46:25;13.90;99.90
57242;DHT22;43095;53.302;5.786;2022-10-31T17:48:52;13.90;99.90
57242;DHT22;43095;53.302;5.786;2022-10-31T17:51:19;13.90;99.90
57242;DHT22;43095;53.302;5.786;2022-10-31T17:53:46;13.90;99.90
57242;DHT22;43095;53.302;5.786;2022-10-31T17:56:13;13.90;99.90
57242;DHT22;43095;53.302;5.786;2022-10-31T17:58:41;14.00;99.90
57242;DHT22;43095;53.302;5.786;2022-10-31T18:01:13;13.90;99.90
57242;DHT22;43095;53.302;5.786;2022-10-31T18:03:41;13.90;99.90
57242;DHT22;43095;53.302;5.786;2022-10-31T18:06:09;13.90;99.90
57242;DHT22;43095;53.302;5.786;2022-10-31T18:08:39;13.90;99.90
57242;DHT22;43095;53.302;5.786;2022-10-31T18:11:12;13.90;99.90
57242;DHT22;43095;53.302;5.786;2022-10-31T18:13:40;13.90;99.90
57242;DHT22;43095;53.302;5.786;2022-10-31T18:16:11;13.90;99.90
57242;DHT22;43095;53.302;5.786;2022-10-31T18:18:56;13.90;99.90
57242;DHT22;43095;53.302;5.786;2022-10-31T18:21:28;13.80;99.90